sensor_id;sensor_type;location;lat;lon;timestamp;P1;durP1;ratioP1;P2;durP2;ratioP2
22490;SDS011;11412;50.802;4.350;2023-02-11T00:00:03;19.35;;;7.97;;
22490;SDS011;11412;50.802;4.350;2023-02-11T00:02:31;13.98;;;7.50;;
22490;SDS011;11412;50.802;4.350;2023-02-11T00:04:57;16.40;;;8.20;;
22490;SDS011;11412;50.802;4.350;2023-02-11T00:07:23;14.77;;;7.60;;
22490;SDS011;11412;50.802;4.350;2023-02-11T00:09:48;13.60;;;7.82;;
22490;SDS011;11412;50.802;4.350;2023-02-11T00:12:14;13.75;;;7.95;;
22490;SDS011;11412;50.802;4.350;2023-02-11T00:14:43;13.27;;;7.03;;
22490;SDS011;11412;50.802;4.350;2023-02-11T00:17:09;14.18;;;7.20;;
22490;SDS011;11412;50.802;4.350;2023-02-11T00:19:34;15.73;;;7.63;;
22490;SDS011;11412;50.802;4.350;2023-02-11T00:22:00;15.35;;;6.97;;
22490;SDS011;11412;50.802;4.350;2023-02-11T00:24:26;13.90;;;6.97;;
22490;SDS011;11412;50.802;4.350;2023-02-11T00:26:51;14.95;;;7.72;;
22490;SDS011;11412;50.802;4.350;2023-02-11T00:29:17;14.40;;;7.57;;
22490;SDS011;11412;50.802;4.350;2023-02-11T00:31:42;13.20;;;6.80;;
22490;SDS011;11412;50.802;4.350;2023-02-11T00:34:08;13.93;;;6.68;;
22490;SDS011;11412;50.802;4.350;2023-02-11T00:36:34;16.40;;;7.72;;
22490;SDS011;11412;50.802;4.350;2023-02-11T00:38:59;12.82;;;6.97;;
22490;SDS011;11412;50.802;4.350;2023-02-11T00:41:25;17.40;;;6.75;;
22490;SDS011;11412;50.802;4.350;2023-02-11T00:43:51;17.85;;;6.88;;
22490;SDS011;11412;50.802;4.350;2023-02-11T00:46:17;12.13;;;6.15;;
22490;SDS011;11412;50.802;4.350;2023-02-11T00:48:42;14.27;;;6.70;;
22490;SDS011;11412;50.802;4.350;2023-02-11T00:51:08;10.60;;;6.40;;
22490;SDS011;11412;50.802;4.350;2023-02-11T00:53:34;11.02;;;6.03;;
22490;SDS011;11412;50.802;4.350;2023-02-11T00:56:00;15.20;;;6.68;;
22490;SDS011;11412;50.802;4.350;2023-02-11T00:58:26;16.73;;;6.45;;
22490;SDS011;11412;50.802;4.350;2023-02-11T01:00:52;12.65;;;6.32;;
22490;SDS011;11412;50.802;4.350;2023-02-11T01:03:19;13.68;;;6.53;;
22490;SDS011;11412;50.802;4.350;2023-02-11T01:05:44;18.30;;;7.70;;
22490;SDS011;11412;50.802;4.350;2023-02-11T01:08:10;13.35;;;6.30;;
22490;SDS011;11412;50.802;4.350;2023-02-11T01:10:36;17.25;;;6.60;;
22490;SDS011;11412;50.802;4.350;2023-02-11T01:13:02;20.08;;;6.78;;
22490;SDS011;11412;50.802;4.350;2023-02-11T01:15:28;11.85;;;6.68;;
22490;SDS011;11412;50.802;4.350;2023-02-11T01:17:54;21.42;;;7.10;;
22490;SDS011;11412;50.802;4.350;2023-02-11T01:20:21;14.73;;;6.90;;
22490;SDS011;11412;50.802;4.350;2023-02-11T01:22:49;14.07;;;6.53;;
22490;SDS011;11412;50.802;4.350;2023-02-11T01:25:14;13.02;;;7.20;;
22490;SDS011;11412;50.802;4.350;2023-02-11T01:27:40;14.43;;;6.90;;
22490;SDS011;11412;50.802;4.350;2023-02-11T01:30:07;13.13;;;6.50;;
22490;SDS011;11412;50.802;4.350;2023-02-11T01:32:35;14.57;;;6.55;;
22490;SDS011;11412;50.802;4.350;2023-02-11T01:35:01;13.55;;;6.32;;
22490;SDS011;11412;50.802;4.350;2023-02-11T01:37:27;14.77;;;7.13;;
22490;SDS011;11412;50.802;4.350;2023-02-11T01:39:52;14.32;;;6.78;;
22490;SDS011;11412;50.802;4.350;2023-02-11T01:42:19;15.63;;;6.95;;
22490;SDS011;11412;50.802;4.350;2023-02-11T01:44:49;13.15;;;6.22;;
22490;SDS011;11412;50.802;4.350;2023-02-11T01:47:16;14.15;;;6.63;;
22490;SDS011;11412;50.802;4.350;2023-02-11T01:49:43;12.13;;;5.88;;
22490;SDS011;11412;50.802;4.350;2023-02-11T01:52:31;11.43;;;6.32;;
22490;SDS011;11412;50.802;4.350;2023-02-11T01:55:04;12.10;;;5.55;;
22490;SDS011;11412;50.802;4.350;2023-02-11T01:57:53;11.15;;;5.97;;
22490;SDS011;11412;50.802;4.350;2023-02-11T02:00:22;14.02;;;6.35;;
22490;SDS011;11412;50.802;4.350;2023-02-11T02:03:04;18.25;;;6.50;;
22490;SDS011;11412;50.802;4.350;2023-02-11T02:10:56;14.63;;;5.93;;
22490;SDS011;11412;50.802;4.350;2023-02-11T02:13:25;15.85;;;5.88;;
22490;SDS011;11412;50.802;4.350;2023-02-11T02:15:54;12.73;;;6.38;;
22490;SDS011;11412;50.802;4.350;2023-02-11T02:35:34;8.95;;;5.30;;
22490;SDS011;11412;50.802;4.350;2023-02-11T02:38:38;14.77;;;5.45;;
22490;SDS011;11412;50.802;4.350;2023-02-11T02:41:05;11.95;;;5.85;;
22490;SDS011;11412;50.802;4.350;2023-02-11T02:43:41;10.75;;;5.38;;
22490;SDS011;11412;50.802;4.350;2023-02-11T02:46:16;19.58;;;5.80;;
22490;SDS011;11412;50.802;4.350;2023-02-11T02:48:50;11.00;;;5.60;;
22490;SDS011;11412;50.802;4.350;2023-02-11T02:57:37;10.95;;;6.05;;
22490;SDS011;11412;50.802;4.350;2023-02-11T03:00:34;9.90;;;5.80;;
22490;SDS011;11412;50.802;4.350;2023-02-11T03:09:15;17.90;;;6.03;;
22490;SDS011;11412;50.802;4.350;2023-02-11T03:11:51;10.05;;;6.05;;
22490;SDS011;11412;50.802;4.350;2023-02-11T03:14:17;11.20;;;5.70;;
22490;SDS011;11412;50.802;4.350;2023-02-11T03:16:45;15.27;;;6.30;;
22490;SDS011;11412;50.802;4.350;2023-02-11T03:19:21;10.32;;;5.40;;
22490;SDS011;11412;50.802;4.350;2023-02-11T03:21:53;11.18;;;5.72;;
22490;SDS011;11412;50.802;4.350;2023-02-11T03:24:22;14.23;;;6.10;;
22490;SDS011;11412;50.802;4.350;2023-02-11T03:26:55;18.35;;;6.65;;
22490;SDS011;11412;50.802;4.350;2023-02-11T03:29:30;10.38;;;6.22;;
22490;SDS011;11412;50.802;4.350;2023-02-11T03:32:22;12.85;;;6.35;;
22490;SDS011;11412;50.802;4.350;2023-02-11T03:34:59;16.65;;;7.32;;
22490;SDS011;11412;50.802;4.350;2023-02-11T03:40:07;16.92;;;7.13;;
22490;SDS011;11412;50.802;4.350;2023-02-11T03:42:42;14.77;;;7.70;;
22490;SDS011;11412;50.802;4.350;2023-02-11T03:45:15;14.90;;;7.40;;
22490;SDS011;11412;50.802;4.350;2023-02-11T03:47:45;16.00;;;7.22;;
22490;SDS011;11412;50.802;4.350;2023-02-11T03:50:15;14.07;;;7.50;;
22490;SDS011;11412;50.802;4.350;2023-02-11T03:52:42;14.50;;;6.85;;
22490;SDS011;11412;50.802;4.350;2023-02-11T03:55:10;13.82;;;6.43;;
22490;SDS011;11412;50.802;4.350;2023-02-11T03:57:39;11.52;;;7.07;;
22490;SDS011;11412;50.802;4.350;2023-02-11T04:00:05;15.23;;;6.75;;
22490;SDS011;11412;50.802;4.350;2023-02-11T04:02:35;14.98;;;7.05;;
22490;SDS011;11412;50.802;4.350;2023-02-11T04:05:02;15.13;;;6.93;;
22490;SDS011;11412;50.802;4.350;2023-02-11T04:07:28;14.75;;;6.70;;
22490;SDS011;11412;50.802;4.350;2023-02-11T04:09:54;14.55;;;7.10;;
22490;SDS011;11412;50.802;4.350;2023-02-11T04:12:19;16.10;;;7.43;;
22490;SDS011;11412;50.802;4.350;2023-02-11T04:14:45;10.75;;;6.55;;
22490;SDS011;11412;50.802;4.350;2023-02-11T04:17:11;10.93;;;6.82;;
22490;SDS011;11412;50.802;4.350;2023-02-11T04:19:37;10.07;;;6.32;;
22490;SDS011;11412;50.802;4.350;2023-02-11T04:22:04;12.38;;;6.80;;
22490;SDS011;11412;50.802;4.350;2023-02-11T04:24:30;14.25;;;7.00;;
22490;SDS011;11412;50.802;4.350;2023-02-11T04:26:56;17.67;;;6.43;;
22490;SDS011;11412;50.802;4.350;2023-02-11T04:29:21;13.27;;;7.13;;
22490;SDS011;11412;50.802;4.350;2023-02-11T04:31:47;13.60;;;7.30;;
22490;SDS011;11412;50.802;4.350;2023-02-11T04:34:13;19.30;;;7.45;;
22490;SDS011;11412;50.802;4.350;2023-02-11T04:36:39;20.33;;;7.78;;
22490;SDS011;11412;50.802;4.350;2023-02-11T04:39:05;11.63;;;7.15;;
22490;SDS011;11412;50.802;4.350;2023-02-11T04:41:31;14.23;;;7.13;;
22490;SDS011;11412;50.802;4.350;2023-02-11T04:43:56;18.48;;;7.18;;
22490;SDS011;11412;50.802;4.350;2023-02-11T04:46:22;16.95;;;7.07;;
22490;SDS011;11412;50.802;4.350;2023-02-11T04:48:48;14.07;;;8.20;;
22490;SDS011;11412;50.802;4.350;2023-02-11T04:51:13;19.58;;;8.35;;
22490;SDS011;11412;50.802;4.350;2023-02-11T04:53:39;19.55;;;7.78;;
22490;SDS011;11412;50.802;4.350;2023-02-11T04:56:05;16.02;;;8.25;;
22490;SDS011;11412;50.802;4.350;2023-02-11T04:58:31;16.67;;;7.53;;
22490;SDS011;11412;50.802;4.350;2023-02-11T05:01:03;16.55;;;8.50;;
22490;SDS011;11412;50.802;4.350;2023-02-11T05:03:33;18.95;;;8.38;;
22490;SDS011;11412;50.802;4.350;2023-02-11T05:05:58;14.40;;;8.27;;
22490;SDS011;11412;50.802;4.350;2023-02-11T05:08:24;23.10;;;9.77;;
22490;SDS011;11412;50.802;4.350;2023-02-11T05:10:50;18.67;;;9.13;;
22490;SDS011;11412;50.802;4.350;2023-02-11T05:13:16;20.15;;;8.30;;
22490;SDS011;11412;50.802;4.350;2023-02-11T05:15:41;18.33;;;8.90;;
22490;SDS011;11412;50.802;4.350;2023-02-11T05:18:07;12.27;;;8.48;;
22490;SDS011;11412;50.802;4.350;2023-02-11T05:20:32;18.45;;;8.73;;
22490;SDS011;11412;50.802;4.350;2023-02-11T05:22:58;14.30;;;8.82;;
22490;SDS011;11412;50.802;4.350;2023-02-11T05:25:24;22.27;;;9.32;;
22490;SDS011;11412;50.802;4.350;2023-02-11T05:27:49;14.45;;;8.60;;
22490;SDS011;11412;50.802;4.350;2023-02-11T05:30:15;17.33;;;9.20;;
22490;SDS011;11412;50.802;4.350;2023-02-11T05:32:41;23.40;;;9.35;;
22490;SDS011;11412;50.802;4.350;2023-02-11T05:35:06;23.27;;;10.15;;
22490;SDS011;11412;50.802;4.350;2023-02-11T05:37:33;20.83;;;9.50;;
22490;SDS011;11412;50.802;4.350;2023-02-11T05:39:59;18.17;;;10.10;;
22490;SDS011;11412;50.802;4.350;2023-02-11T05:42:24;20.92;;;10.27;;
22490;SDS011;11412;50.802;4.350;2023-02-11T05:44:50;23.83;;;10.00;;
22490;SDS011;11412;50.802;4.350;2023-02-11T05:47:16;18.85;;;10.63;;
22490;SDS011;11412;50.802;4.350;2023-02-11T05:49:41;17.73;;;10.13;;
22490;SDS011;11412;50.802;4.350;2023-02-11T05:52:07;17.73;;;10.82;;
22490;SDS011;11412;50.802;4.350;2023-02-11T05:54:32;20.60;;;11.70;;
22490;SDS011;11412;50.802;4.350;2023-02-11T05:56:58;20.00;;;10.38;;
22490;SDS011;11412;50.802;4.350;2023-02-11T05:59:24;25.05;;;11.20;;
22490;SDS011;11412;50.802;4.350;2023-02-11T06:01:50;17.55;;;10.30;;
22490;SDS011;11412;50.802;4.350;2023-02-11T06:04:16;15.32;;;10.10;;
22490;SDS011;11412;50.802;4.350;2023-02-11T06:06:41;15.02;;;10.40;;
22490;SDS011;11412;50.802;4.350;2023-02-11T06:09:08;20.55;;;10.70;;
22490;SDS011;11412;50.802;4.350;2023-02-11T06:11:35;18.83;;;10.98;;
22490;SDS011;11412;50.802;4.350;2023-02-11T06:14:00;19.88;;;10.73;;
22490;SDS011;11412;50.802;4.350;2023-02-11T06:16:26;18.02;;;11.70;;
22490;SDS011;11412;50.802;4.350;2023-02-11T06:18:52;20.92;;;11.57;;
22490;SDS011;11412;50.802;4.350;2023-02-11T06:21:17;29.90;;;12.88;;
22490;SDS011;11412;50.802;4.350;2023-02-11T06:23:43;20.25;;;12.30;;
22490;SDS011;11412;50.802;4.350;2023-02-11T06:26:14;26.20;;;12.02;;
22490;SDS011;11412;50.802;4.350;2023-02-11T06:28:44;24.90;;;11.85;;
22490;SDS011;11412;50.802;4.350;2023-02-11T06:31:12;23.40;;;12.40;;
22490;SDS011;11412;50.802;4.350;2023-02-11T06:33:38;27.10;;;12.27;;
22490;SDS011;11412;50.802;4.350;2023-02-11T06:36:08;22.98;;;12.13;;
22490;SDS011;11412;50.802;4.350;2023-02-11T06:38:39;24.60;;;13.40;;
22490;SDS011;11412;50.802;4.350;2023-02-11T06:41:07;29.20;;;15.02;;
22490;SDS011;11412;50.802;4.350;2023-02-11T06:43:36;27.40;;;13.73;;
22490;SDS011;11412;50.802;4.350;2023-02-11T06:46:02;23.70;;;14.25;;
22490;SDS011;11412;50.802;4.350;2023-02-11T06:48:28;27.20;;;14.05;;
22490;SDS011;11412;50.802;4.350;2023-02-11T06:50:53;28.05;;;14.18;;
22490;SDS011;11412;50.802;4.350;2023-02-11T06:53:19;22.55;;;12.68;;
22490;SDS011;11412;50.802;4.350;2023-02-11T06:55:45;24.45;;;13.07;;
22490;SDS011;11412;50.802;4.350;2023-02-11T06:58:10;30.85;;;14.25;;
22490;SDS011;11412;50.802;4.350;2023-02-11T07:00:36;25.85;;;14.23;;
22490;SDS011;11412;50.802;4.350;2023-02-11T07:03:02;29.98;;;13.98;;
22490;SDS011;11412;50.802;4.350;2023-02-11T07:05:28;25.70;;;13.77;;
22490;SDS011;11412;50.802;4.350;2023-02-11T07:07:53;21.80;;;12.63;;
22490;SDS011;11412;50.802;4.350;2023-02-11T07:10:19;27.48;;;13.32;;
22490;SDS011;11412;50.802;4.350;2023-02-11T07:12:44;22.42;;;13.00;;
22490;SDS011;11412;50.802;4.350;2023-02-11T07:15:10;20.85;;;14.30;;
22490;SDS011;11412;50.802;4.350;2023-02-11T07:17:36;25.77;;;13.38;;
22490;SDS011;11412;50.802;4.350;2023-02-11T07:20:02;26.15;;;13.90;;
22490;SDS011;11412;50.802;4.350;2023-02-11T07:22:27;25.25;;;13.98;;
22490;SDS011;11412;50.802;4.350;2023-02-11T07:24:53;27.38;;;13.55;;
22490;SDS011;11412;50.802;4.350;2023-02-11T07:27:19;23.02;;;13.00;;
22490;SDS011;11412;50.802;4.350;2023-02-11T07:29:44;26.15;;;13.88;;
22490;SDS011;11412;50.802;4.350;2023-02-11T07:32:11;25.40;;;13.60;;
22490;SDS011;11412;50.802;4.350;2023-02-11T07:34:37;27.38;;;14.00;;
22490;SDS011;11412;50.802;4.350;2023-02-11T07:37:03;26.33;;;14.70;;
22490;SDS011;11412;50.802;4.350;2023-02-11T07:39:29;27.00;;;14.90;;
22490;SDS011;11412;50.802;4.350;2023-02-11T07:41:55;28.45;;;14.48;;
22490;SDS011;11412;50.802;4.350;2023-02-11T07:44:20;26.63;;;14.55;;
22490;SDS011;11412;50.802;4.350;2023-02-11T07:46:46;26.65;;;15.02;;
22490;SDS011;11412;50.802;4.350;2023-02-11T07:49:13;29.65;;;15.38;;
22490;SDS011;11412;50.802;4.350;2023-02-11T07:51:39;26.33;;;16.23;;
22490;SDS011;11412;50.802;4.350;2023-02-11T07:54:05;29.80;;;15.13;;
22490;SDS011;11412;50.802;4.350;2023-02-11T07:56:31;30.23;;;15.95;;
22490;SDS011;11412;50.802;4.350;2023-02-11T07:59:00;32.85;;;16.65;;
22490;SDS011;11412;50.802;4.350;2023-02-11T08:01:28;38.60;;;17.65;;
22490;SDS011;11412;50.802;4.350;2023-02-11T08:03:55;36.55;;;18.25;;
22490;SDS011;11412;50.802;4.350;2023-02-11T08:06:23;29.42;;;16.38;;
22490;SDS011;11412;50.802;4.350;2023-02-11T08:08:50;30.33;;;16.30;;
22490;SDS011;11412;50.802;4.350;2023-02-11T08:11:17;35.72;;;17.02;;
22490;SDS011;11412;50.802;4.350;2023-02-11T08:13:45;30.35;;;16.25;;
22490;SDS011;11412;50.802;4.350;2023-02-11T08:16:44;39.95;;;16.70;;
22490;SDS011;11412;50.802;4.350;2023-02-11T08:19:04;36.22;;;17.73;;
22490;SDS011;11412;50.802;4.350;2023-02-11T08:21:31;35.05;;;17.08;;
22490;SDS011;11412;50.802;4.350;2023-02-11T08:23:57;31.58;;;16.95;;
22490;SDS011;11412;50.802;4.350;2023-02-11T08:26:24;37.45;;;18.05;;
22490;SDS011;11412;50.802;4.350;2023-02-11T08:28:53;40.00;;;16.48;;
22490;SDS011;11412;50.802;4.350;2023-02-11T08:31:21;34.90;;;17.80;;
22490;SDS011;11412;50.802;4.350;2023-02-11T08:33:48;37.30;;;17.52;;
22490;SDS011;11412;50.802;4.350;2023-02-11T08:36:15;37.38;;;17.38;;
22490;SDS011;11412;50.802;4.350;2023-02-11T08:38:42;36.15;;;18.58;;
22490;SDS011;11412;50.802;4.350;2023-02-11T08:41:09;36.10;;;18.05;;
22490;SDS011;11412;50.802;4.350;2023-02-11T08:43:35;38.90;;;17.92;;
22490;SDS011;11412;50.802;4.350;2023-02-11T08:46:05;36.63;;;18.08;;
22490;SDS011;11412;50.802;4.350;2023-02-11T08:48:31;39.58;;;18.10;;
22490;SDS011;11412;50.802;4.350;2023-02-11T08:50:57;44.85;;;18.55;;
22490;SDS011;11412;50.802;4.350;2023-02-11T08:53:24;38.88;;;18.35;;
22490;SDS011;11412;50.802;4.350;2023-02-11T08:55:54;34.60;;;16.92;;
22490;SDS011;11412;50.802;4.350;2023-02-11T08:58:20;39.28;;;18.15;;
22490;SDS011;11412;50.802;4.350;2023-02-11T09:00:47;37.72;;;18.08;;
22490;SDS011;11412;50.802;4.350;2023-02-11T09:03:14;32.70;;;18.95;;
22490;SDS011;11412;50.802;4.350;2023-02-11T09:05:41;40.03;;;17.75;;
22490;SDS011;11412;50.802;4.350;2023-02-11T09:08:11;43.00;;;18.00;;
22490;SDS011;11412;50.802;4.350;2023-02-11T09:10:39;37.40;;;17.23;;
22490;SDS011;11412;50.802;4.350;2023-02-11T09:13:05;35.53;;;18.33;;
22490;SDS011;11412;50.802;4.350;2023-02-11T09:15:31;38.15;;;18.77;;
22490;SDS011;11412;50.802;4.350;2023-02-11T09:17:57;39.33;;;19.27;;
22490;SDS011;11412;50.802;4.350;2023-02-11T09:20:23;32.50;;;17.42;;
22490;SDS011;11412;50.802;4.350;2023-02-11T09:22:50;44.53;;;20.77;;
22490;SDS011;11412;50.802;4.350;2023-02-11T09:25:16;39.70;;;19.98;;
22490;SDS011;11412;50.802;4.350;2023-02-11T09:27:42;40.80;;;19.98;;
22490;SDS011;11412;50.802;4.350;2023-02-11T09:30:08;38.47;;;19.65;;
22490;SDS011;11412;50.802;4.350;2023-02-11T09:32:34;46.00;;;20.67;;
22490;SDS011;11412;50.802;4.350;2023-02-11T09:35:00;37.75;;;19.83;;
22490;SDS011;11412;50.802;4.350;2023-02-11T09:37:26;43.25;;;19.88;;
22490;SDS011;11412;50.802;4.350;2023-02-11T09:39:51;41.47;;;19.80;;
22490;SDS011;11412;50.802;4.350;2023-02-11T09:42:33;42.22;;;20.20;;
22490;SDS011;11412;50.802;4.350;2023-02-11T09:45:17;47.60;;;19.67;;
22490;SDS011;11412;50.802;4.350;2023-02-11T09:47:47;47.17;;;20.63;;
22490;SDS011;11412;50.802;4.350;2023-02-11T09:50:18;48.83;;;22.17;;
22490;SDS011;11412;50.802;4.350;2023-02-11T09:55:47;39.30;;;20.60;;
22490;SDS011;11412;50.802;4.350;2023-02-11T09:58:21;39.08;;;21.02;;
22490;SDS011;11412;50.802;4.350;2023-02-11T10:01:00;47.00;;;21.17;;
22490;SDS011;11412;50.802;4.350;2023-02-11T10:03:48;44.60;;;21.33;;
22490;SDS011;11412;50.802;4.350;2023-02-11T10:06:24;47.38;;;20.92;;
22490;SDS011;11412;50.802;4.350;2023-02-11T10:11:51;40.30;;;20.58;;
22490;SDS011;11412;50.802;4.350;2023-02-11T10:22:47;48.22;;;21.73;;
22490;SDS011;11412;50.802;4.350;2023-02-11T10:25:26;44.33;;;22.75;;
22490;SDS011;11412;50.802;4.350;2023-02-11T10:27:58;42.58;;;21.33;;
22490;SDS011;11412;50.802;4.350;2023-02-11T10:33:02;43.92;;;21.63;;
22490;SDS011;11412;50.802;4.350;2023-02-11T10:38:30;45.50;;;22.38;;
22490;SDS011;11412;50.802;4.350;2023-02-11T10:40:57;40.17;;;21.90;;
22490;SDS011;11412;50.802;4.350;2023-02-11T10:43:23;44.42;;;22.90;;
22490;SDS011;11412;50.802;4.350;2023-02-11T10:45:52;42.30;;;22.38;;
22490;SDS011;11412;50.802;4.350;2023-02-11T10:51:26;41.03;;;21.00;;
22490;SDS011;11412;50.802;4.350;2023-02-11T10:56:30;45.63;;;23.02;;
22490;SDS011;11412;50.802;4.350;2023-02-11T11:01:44;42.05;;;23.40;;
22490;SDS011;11412;50.802;4.350;2023-02-11T11:04:38;42.10;;;24.55;;
22490;SDS011;11412;50.802;4.350;2023-02-11T11:09:50;45.08;;;22.05;;
22490;SDS011;11412;50.802;4.350;2023-02-11T11:12:49;45.63;;;24.08;;
22490;SDS011;11412;50.802;4.350;2023-02-11T11:15:16;45.15;;;24.15;;
22490;SDS011;11412;50.802;4.350;2023-02-11T11:17:45;45.05;;;23.48;;
22490;SDS011;11412;50.802;4.350;2023-02-11T11:20:22;49.13;;;24.58;;
22490;SDS011;11412;50.802;4.350;2023-02-11T11:23:09;46.45;;;24.23;;
22490;SDS011;11412;50.802;4.350;2023-02-11T11:25:44;52.53;;;25.65;;
22490;SDS011;11412;50.802;4.350;2023-02-11T11:28:22;47.15;;;25.55;;
22490;SDS011;11412;50.802;4.350;2023-02-11T11:30:50;49.83;;;25.23;;
22490;SDS011;11412;50.802;4.350;2023-02-11T11:33:20;48.70;;;24.88;;
22490;SDS011;11412;50.802;4.350;2023-02-11T11:38:21;51.92;;;24.95;;
22490;SDS011;11412;50.802;4.350;2023-02-11T11:40:46;46.88;;;24.25;;
22490;SDS011;11412;50.802;4.350;2023-02-11T11:43:38;50.85;;;25.08;;
22490;SDS011;11412;50.802;4.350;2023-02-11T11:46:04;49.50;;;24.75;;
22490;SDS011;11412;50.802;4.350;2023-02-11T11:48:37;52.63;;;25.00;;
22490;SDS011;11412;50.802;4.350;2023-02-11T11:51:10;47.60;;;25.27;;
22490;SDS011;11412;50.802;4.350;2023-02-11T11:53:38;48.67;;;25.73;;
22490;SDS011;11412;50.802;4.350;2023-02-11T11:56:26;57.05;;;25.92;;
22490;SDS011;11412;50.802;4.350;2023-02-11T11:59:05;51.67;;;24.98;;
22490;SDS011;11412;50.802;4.350;2023-02-11T12:04:22;47.40;;;25.23;;
22490;SDS011;11412;50.802;4.350;2023-02-11T12:07:25;49.60;;;24.85;;
22490;SDS011;11412;50.802;4.350;2023-02-11T12:12:54;45.25;;;24.77;;
22490;SDS011;11412;50.802;4.350;2023-02-11T12:18:10;48.47;;;24.55;;
22490;SDS011;11412;50.802;4.350;2023-02-11T12:23:20;43.80;;;23.52;;
22490;SDS011;11412;50.802;4.350;2023-02-11T12:26:12;48.10;;;25.05;;
22490;SDS011;11412;50.802;4.350;2023-02-11T12:28:50;47.22;;;24.52;;
22490;SDS011;11412;50.802;4.350;2023-02-11T12:31:46;56.90;;;27.42;;
22490;SDS011;11412;50.802;4.350;2023-02-11T12:34:48;46.55;;;24.90;;
22490;SDS011;11412;50.802;4.350;2023-02-11T12:40:16;45.28;;;25.63;;
22490;SDS011;11412;50.802;4.350;2023-02-11T12:48:14;51.88;;;26.27;;
22490;SDS011;11412;50.802;4.350;2023-02-11T12:55:48;55.25;;;31.20;;
22490;SDS011;11412;50.802;4.350;2023-02-11T12:58:20;82.40;;;45.50;;
22490;SDS011;11412;50.802;4.350;2023-02-11T13:00:54;54.97;;;30.55;;
22490;SDS011;11412;50.802;4.350;2023-02-11T13:03:28;55.10;;;28.98;;
22490;SDS011;11412;50.802;4.350;2023-02-11T13:06:02;62.40;;;28.58;;
22490;SDS011;11412;50.802;4.350;2023-02-11T13:08:36;49.70;;;25.58;;
22490;SDS011;11412;50.802;4.350;2023-02-11T13:13:45;53.92;;;26.55;;
22490;SDS011;11412;50.802;4.350;2023-02-11T13:16:21;48.13;;;26.60;;
22490;SDS011;11412;50.802;4.350;2023-02-11T13:35:35;46.63;;;26.92;;
22490;SDS011;11412;50.802;4.350;2023-02-11T13:38:05;53.53;;;26.85;;
22490;SDS011;11412;50.802;4.350;2023-02-11T13:40:41;49.92;;;27.05;;
22490;SDS011;11412;50.802;4.350;2023-02-11T13:43:18;53.28;;;27.55;;
22490;SDS011;11412;50.802;4.350;2023-02-11T13:45:50;50.08;;;28.25;;
22490;SDS011;11412;50.802;4.350;2023-02-11T13:48:22;58.33;;;29.02;;
22490;SDS011;11412;50.802;4.350;2023-02-11T13:50:54;55.83;;;28.48;;
22490;SDS011;11412;50.802;4.350;2023-02-11T13:53:25;48.90;;;27.92;;
22490;SDS011;11412;50.802;4.350;2023-02-11T13:55:53;53.70;;;28.23;;
22490;SDS011;11412;50.802;4.350;2023-02-11T13:58:49;52.28;;;27.08;;
22490;SDS011;11412;50.802;4.350;2023-02-11T14:04:30;49.22;;;28.40;;
22490;SDS011;11412;50.802;4.350;2023-02-11T14:07:25;49.33;;;28.95;;
22490;SDS011;11412;50.802;4.350;2023-02-11T14:13:24;56.25;;;29.73;;
22490;SDS011;11412;50.802;4.350;2023-02-11T14:26:55;52.83;;;29.35;;
22490;SDS011;11412;50.802;4.350;2023-02-11T14:32:00;56.72;;;30.05;;
22490;SDS011;11412;50.802;4.350;2023-02-11T14:37:50;48.83;;;28.40;;
22490;SDS011;11412;50.802;4.350;2023-02-11T14:43:11;52.55;;;28.85;;
22490;SDS011;11412;50.802;4.350;2023-02-11T14:45:44;61.47;;;29.02;;
22490;SDS011;11412;50.802;4.350;2023-02-11T14:48:16;49.63;;;29.15;;
22490;SDS011;11412;50.802;4.350;2023-02-11T14:53:13;50.60;;;29.13;;
22490;SDS011;11412;50.802;4.350;2023-02-11T14:55:41;51.70;;;30.10;;
22490;SDS011;11412;50.802;4.350;2023-02-11T14:58:15;50.75;;;28.13;;
22490;SDS011;11412;50.802;4.350;2023-02-11T15:00:50;52.03;;;28.75;;
22490;SDS011;11412;50.802;4.350;2023-02-11T15:03:36;56.88;;;30.25;;
22490;SDS011;11412;50.802;4.350;2023-02-11T15:06:05;48.40;;;27.65;;
22490;SDS011;11412;50.802;4.350;2023-02-11T15:08:36;54.40;;;29.88;;
22490;SDS011;11412;50.802;4.350;2023-02-11T15:11:09;59.78;;;32.70;;
22490;SDS011;11412;50.802;4.350;2023-02-11T15:13:37;56.72;;;31.98;;
22490;SDS011;11412;50.802;4.350;2023-02-11T15:16:11;50.35;;;30.63;;
22490;SDS011;11412;50.802;4.350;2023-02-11T15:19:04;55.05;;;32.45;;
22490;SDS011;11412;50.802;4.350;2023-02-11T15:21:31;56.28;;;28.95;;
22490;SDS011;11412;50.802;4.350;2023-02-11T15:24:01;49.45;;;29.90;;
22490;SDS011;11412;50.802;4.350;2023-02-11T15:26:30;59.70;;;29.92;;
22490;SDS011;11412;50.802;4.350;2023-02-11T15:28:56;57.95;;;29.67;;
22490;SDS011;11412;50.802;4.350;2023-02-11T15:31:23;50.95;;;28.23;;
22490;SDS011;11412;50.802;4.350;2023-02-11T15:33:50;54.97;;;29.40;;
22490;SDS011;11412;50.802;4.350;2023-02-11T15:36:18;55.88;;;29.38;;
22490;SDS011;11412;50.802;4.350;2023-02-11T15:41:43;49.72;;;28.40;;
22490;SDS011;11412;50.802;4.350;2023-02-11T15:44:27;52.17;;;29.52;;
22490;SDS011;11412;50.802;4.350;2023-02-11T15:46:54;56.63;;;31.17;;
22490;SDS011;11412;50.802;4.350;2023-02-11T15:49:20;48.70;;;29.40;;
22490;SDS011;11412;50.802;4.350;2023-02-11T15:51:47;49.95;;;30.45;;
22490;SDS011;11412;50.802;4.350;2023-02-11T15:54:17;51.45;;;30.90;;
22490;SDS011;11412;50.802;4.350;2023-02-11T15:56:50;50.92;;;30.05;;
22490;SDS011;11412;50.802;4.350;2023-02-11T16:01:54;49.65;;;29.75;;
22490;SDS011;11412;50.802;4.350;2023-02-11T16:04:29;47.80;;;28.80;;
22490;SDS011;11412;50.802;4.350;2023-02-11T16:06:54;51.65;;;29.48;;
22490;SDS011;11412;50.802;4.350;2023-02-11T16:09:22;48.88;;;29.50;;
22490;SDS011;11412;50.802;4.350;2023-02-11T16:16:55;50.55;;;29.77;;
22490;SDS011;11412;50.802;4.350;2023-02-11T16:19:26;56.95;;;31.27;;
22490;SDS011;11412;50.802;4.350;2023-02-11T16:21:54;52.33;;;30.35;;
22490;SDS011;11412;50.802;4.350;2023-02-11T16:24:24;56.38;;;30.65;;
22490;SDS011;11412;50.802;4.350;2023-02-11T16:26:52;50.33;;;30.33;;
22490;SDS011;11412;50.802;4.350;2023-02-11T16:29:25;56.40;;;31.63;;
22490;SDS011;11412;50.802;4.350;2023-02-11T16:31:53;58.00;;;32.13;;
22490;SDS011;11412;50.802;4.350;2023-02-11T16:34:29;48.42;;;30.17;;
22490;SDS011;11412;50.802;4.350;2023-02-11T16:36:55;54.03;;;31.08;;
22490;SDS011;11412;50.802;4.350;2023-02-11T16:39:20;59.45;;;31.83;;
22490;SDS011;11412;50.802;4.350;2023-02-11T16:41:47;49.72;;;29.92;;
22490;SDS011;11412;50.802;4.350;2023-02-11T16:44:17;52.17;;;29.30;;
22490;SDS011;11412;50.802;4.350;2023-02-11T16:46:43;50.53;;;28.58;;
22490;SDS011;11412;50.802;4.350;2023-02-11T16:49:10;49.63;;;30.42;;
22490;SDS011;11412;50.802;4.350;2023-02-11T16:51:46;49.50;;;29.67;;
22490;SDS011;11412;50.802;4.350;2023-02-11T16:54:14;51.28;;;29.75;;
22490;SDS011;11412;50.802;4.350;2023-02-11T16:56:41;52.80;;;30.83;;
22490;SDS011;11412;50.802;4.350;2023-02-11T16:59:07;48.10;;;29.92;;
22490;SDS011;11412;50.802;4.350;2023-02-11T17:01:34;50.22;;;29.48;;
22490;SDS011;11412;50.802;4.350;2023-02-11T17:04:02;53.47;;;30.05;;
22490;SDS011;11412;50.802;4.350;2023-02-11T17:06:28;50.78;;;30.42;;
22490;SDS011;11412;50.802;4.350;2023-02-11T17:08:54;46.67;;;29.75;;
22490;SDS011;11412;50.802;4.350;2023-02-11T17:11:20;43.33;;;28.98;;
22490;SDS011;11412;50.802;4.350;2023-02-11T17:13:46;49.85;;;29.67;;